Time;durP1;ratioP1;P1;durP2;ratioP2;P2;SDS_P1;SDS_P2;PMS_P1;PMS_P2;Temp;Humidity;BMP_temperature;BMP_pressure;BME280_temperature;BME280_humidity;BME280_pressure;Samples;Min_cycle;Max_cycle;Signal;HPM_P1;HPM_P2
2023/01/23 00:00:09;;;;;;;22.80;21.70;;;;;;;2.09;100.00;103747.34;4992907;28;20430;-50
2023/01/23 00:02:37;;;;;;;22.83;21.43;;;;;;;2.11;100.00;103745.50;4992575;28;20831;-46
2023/01/23 00:05:06;;;;;;;23.77;22.10;;;;;;;2.07;100.00;103750.97;4992517;28;20971;-43
2023/01/23 00:07:35;;;;;;;22.83;21.33;;;;;;;2.07;100.00;103762.34;4992886;28;20835;-44
2023/01/23 00:10:02;;;;;;;21.53;20.23;;;;;;;2.03;100.00;103749.41;4992747;28;20481;-46
2023/01/23 00:12:30;;;;;;;22.87;21.20;;;;;;;2.02;100.00;103752.97;4992313;28;20465;-47
2023/01/23 00:14:58;;;;;;;24.07;22.73;;;;;;;2.02;100.00;103748.56;4992419;28;20943;-46
2023/01/23 00:17:26;;;;;;;23.00;21.73;;;;;;;1.94;100.00;103739.28;4992634;28;20485;-48
2023/01/23 00:19:55;;;;;;;23.07;21.67;;;;;;;1.99;100.00;103735.53;4992434;28;20426;-44
2023/01/23 00:22:23;;;;;;;22.90;21.50;;;;;;;2.00;100.00;103739.84;4992295;28;20462;-43
2023/01/23 00:24:52;;;;;;;23.43;22.33;;;;;;;2.00;100.00;103729.31;4992534;28;20441;-46
2023/01/23 00:27:19;;;;;;;23.03;22.13;;;;;;;2.02;100.00;103737.16;4992422;28;20460;-44
2023/01/23 00:29:47;;;;;;;22.43;21.63;;;;;;;2.02;100.00;103739.78;4992501;28;20473;-46
2023/01/23 00:32:15;;;;;;;21.93;20.97;;;;;;;2.04;100.00;103737.94;4991194;28;20473;-46
2023/01/23 00:34:43;;;;;;;22.03;20.73;;;;;;;2.05;100.00;103732.63;4992518;28;20444;-47
2023/01/23 00:37:11;;;;;;;22.30;21.40;;;;;;;2.11;100.00;103734.13;4992338;28;20537;-44
2023/01/23 00:39:38;;;;;;;22.07;21.17;;;;;;;2.09;100.00;103735.97;4992305;28;20434;-43
2023/01/23 00:42:07;;;;;;;22.80;21.00;;;;;;;2.11;100.00;103731.50;4991942;28;20468;-46
2023/01/23 00:44:35;;;;;;;23.27;21.73;;;;;;;2.07;100.00;103724.66;4992148;28;20434;-45
2023/01/23 00:47:03;;;;;;;22.73;21.70;;;;;;;2.11;100.00;103728.84;4992101;28;20843;-43
2023/01/23 00:49:30;;;;;;;23.73;22.40;;;;;;;2.13;100.00;103729.63;4992392;28;20781;-47
2023/01/23 00:51:58;;;;;;;22.20;21.10;;;;;;;2.13;100.00;103735.75;4991752;28;20462;-43
2023/01/23 00:54:25;;;;;;;22.53;21.23;;;;;;;2.12;100.00;103726.13;4992006;28;20434;-44
2023/01/23 00:56:53;;;;;;;23.70;22.20;;;;;;;2.14;100.00;103715.56;4992164;28;20458;-45
2023/01/23 00:59:22;;;;;;;23.07;22.03;;;;;;;2.11;100.00;103710.44;4992132;28;20437;-48
2023/01/23 01:01:50;;;;;;;23.10;21.97;;;;;;;2.05;100.00;103711.56;4991718;28;20466;-43
2023/01/23 01:04:18;;;;;;;23.73;22.53;;;;;;;2.07;100.00;103703.59;4991830;28;20932;-43
2023/01/23 01:06:45;;;;;;;23.30;22.10;;;;;;;2.02;100.00;103706.44;4992281;28;20508;-43
2023/01/23 01:09:14;;;;;;;24.30;23.10;;;;;;;2.03;100.00;103708.13;4992122;28;20859;-47
2023/01/23 01:11:41;;;;;;;23.93;22.60;;;;;;;2.03;100.00;103716.03;4991644;28;20469;-43
2023/01/23 01:14:09;;;;;;;25.50;23.80;;;;;;;2.02;100.00;103721.38;4991710;28;20525;-47
2023/01/23 01:16:43;;;;;;;25.53;24.37;;;;;;;2.04;100.00;103724.78;4991853;28;20504;-49
2023/01/23 01:19:11;;;;;;;24.60;23.50;;;;;;;2.04;100.00;103735.31;4992164;28;20520;-46
2023/01/23 01:21:40;;;;;;;24.73;23.33;;;;;;;2.09;100.00;103728.09;4991696;28;20548;-45
2023/01/23 01:24:08;;;;;;;25.13;23.83;;;;;;;2.06;100.00;103736.94;4991825;28;20470;-49
2023/01/23 01:26:36;;;;;;;24.50;23.30;;;;;;;2.09;100.00;103741.25;4991781;28;20458;-44
2023/01/23 01:29:04;;;;;;;25.20;23.70;;;;;;;2.11;100.00;103744.66;4992094;28;20434;-43
2023/01/23 01:31:31;;;;;;;26.17;23.97;;;;;;;2.05;100.00;103747.56;4991390;28;20468;-47
2023/01/23 01:34:01;;;;;;;24.23;22.77;;;;;;;2.07;100.00;103737.81;4991793;28;20461;-43
2023/01/23 01:36:28;;;;;;;24.40;23.30;;;;;;;2.02;100.00;103743.28;4991842;28;20451;-43
2023/01/23 01:38:56;;;;;;;24.53;23.30;;;;;;;1.98;100.00;103748.75;4991691;28;20807;-45
2023/01/23 01:41:24;;;;;;;25.80;24.20;;;;;;;1.99;100.00;103743.44;4991079;28;20457;-44
2023/01/23 01:43:55;;;;;;;25.60;24.20;;;;;;;2.00;100.00;103744.28;4995010;28;20430;-43
2023/01/23 01:46:24;;;;;;;23.40;22.20;;;;;;;2.03;100.00;103741.53;4995388;28;20444;-44
2023/01/23 01:49:03;;;;;;;24.30;23.20;;;;;;;2.03;100.00;103750.25;4995379;28;20480;-43
2023/01/23 01:51:34;;;;;;;23.90;22.67;;;;;;;1.99;100.00;103742.56;4994731;28;20524;-44
2023/01/23 01:54:07;;;;;;;24.87;23.23;;;;;;;2.00;100.00;103741.66;4995571;28;20426;-46
2023/01/23 01:56:39;;;;;;;24.80;23.70;;;;;;;2.03;100.00;103746.78;4995261;28;20508;-45
2023/01/23 01:59:09;;;;;;;25.67;23.97;;;;;;;2.03;100.00;103733.63;4995300;28;20430;-45
2023/01/23 02:01:38;;;;;;;25.10;23.77;;;;;;;2.00;100.00;103736.38;4994734;28;20462;-46
2023/01/23 02:04:09;;;;;;;25.73;24.23;;;;;;;2.00;100.00;103739.84;4994716;28;20488;-44
2023/01/23 02:06:37;;;;;;;26.77;25.00;;;;;;;1.98;100.00;103739.06;4995185;28;20458;-43
2023/01/23 02:09:09;;;;;;;25.00;23.60;;;;;;;2.00;100.00;103746.91;4995041;28;20430;-47
2023/01/23 02:11:37;;;;;;;24.60;23.20;;;;;;;1.98;100.00;103743.47;4994455;28;20466;-50
2023/01/23 02:14:05;;;;;;;23.63;22.40;;;;;;;1.98;100.00;103738.22;4994631;28;20449;-45
2023/01/23 02:16:39;;;;;;;23.70;22.60;;;;;;;1.92;100.00;103749.88;4994629;28;20462;-50
2023/01/23 02:19:27;;;;;;;24.93;23.63;;;;;;;1.91;100.00;103742.88;4995104;28;20447;-47
2023/01/23 02:22:00;;;;;;;23.93;22.83;;;;;;;1.86;100.00;103751.91;4994272;28;20461;-49
2023/01/23 02:24:36;;;;;;;25.83;24.43;;;;;;;1.86;100.00;103755.41;4994501;28;20463;-48
2023/01/23 02:27:05;;;;;;;25.33;24.03;;;;;;;1.89;100.00;103751.78;4994527;28;20466;-44
2023/01/23 02:29:43;;;;;;;28.40;26.80;;;;;;;1.82;100.00;103756.47;4994728;28;20461;-47
2023/01/23 02:32:11;;;;;;;24.90;23.37;;;;;;;1.75;100.00;103765.53;4994151;28;20471;-45
2023/01/23 02:34:39;;;;;;;24.93;23.53;;;;;;;1.74;100.00;103758.56;4994279;28;20828;-47
2023/01/23 02:37:09;;;;;;;25.60;23.67;;;;;;;1.70;100.00;103767.53;4994408;28;20468;-47
2023/01/23 02:39:38;;;;;;;23.47;22.27;;;;;;;1.66;100.00;103772.06;4994137;28;20824;-45
2023/01/23 02:42:08;;;;;;;23.87;22.60;;;;;;;1.72;100.00;103773.56;4994031;28;20552;-44
2023/01/23 02:44:35;;;;;;;24.90;23.70;;;;;;;1.66;100.00;103777.31;4994220;28;20437;-46
2023/01/23 02:47:06;;;;;;;25.40;24.10;;;;;;;1.67;100.00;103781.66;4994278;28;20844;-46
2023/01/23 02:49:34;;;;;;;24.97;23.63;;;;;;;1.61;100.00;103771.38;4994184;28;20843;-45
2023/01/23 02:52:02;;;;;;;26.73;25.33;;;;;;;1.61;100.00;103770.56;4993442;28;20473;-44
2023/01/23 02:54:30;;;;;;;25.93;24.30;;;;;;;1.63;100.00;103771.34;4993321;28;20434;-48
2023/01/23 02:56:58;;;;;;;24.80;23.30;;;;;;;1.59;100.00;103781.13;4993876;28;21046;-43
2023/01/23 03:02:13;;;;;;;26.73;25.03;;;;;;;1.65;100.00;103780.88;4993608;28;20483;-46
2023/01/23 03:04:41;;;;;;;26.43;24.60;;;;;;;1.66;100.00;103774.69;4993906;28;20436;-45
2023/01/23 03:07:09;;;;;;;25.07;23.87;;;;;;;1.67;100.00;103784.28;4994079;28;20450;-43
2023/01/23 03:09:37;;;;;;;26.57;24.43;;;;;;;1.71;100.00;103782.38;4993547;28;20477;-43
2023/01/23 03:12:05;;;;;;;25.70;24.37;;;;;;;1.70;100.00;103787.72;4992970;28;21034;-45
2023/01/23 03:14:34;;;;;;;25.90;24.50;;;;;;;1.66;100.00;103787.84;4993473;28;20936;-44
2023/01/23 03:17:01;;;;;;;25.13;23.80;;;;;;;1.59;100.00;103791.63;4993510;28;20508;-43
2023/01/23 03:19:30;;;;;;;25.83;24.30;;;;;;;1.57;100.00;103814.53;4993143;28;20441;-47
2023/01/23 03:21:57;;;;;;;25.80;24.40;;;;;;;1.61;100.00;103794.22;4991692;28;20524;-50
2023/01/23 03:24:25;;;;;;;25.83;24.63;;;;;;;1.58;100.00;103789.91;4992079;28;20473;-45
2023/01/23 03:26:53;;;;;;;25.60;24.27;;;;;;;1.55;100.00;103795.31;4990728;28;20970;-43
2023/01/23 03:32:10;;;;;;;25.70;24.50;;;;;;;1.51;100.00;103806.91;4990023;28;21014;-44
2023/01/23 03:34:40;;;;;;;26.43;25.03;;;;;;;1.53;100.00;103812.06;4991862;28;20439;-45
2023/01/23 03:37:09;;;;;;;27.40;25.90;;;;;;;1.49;100.00;103811.34;4991989;28;20985;-44
2023/01/23 03:42:22;;;;;;;26.73;25.33;;;;;;;1.51;100.00;103806.03;4991321;28;20466;-43
2023/01/23 03:44:51;;;;;;;26.33;25.00;;;;;;;1.52;100.00;103802.50;4992931;28;20434;-44
2023/01/23 03:47:20;;;;;;;26.87;25.13;;;;;;;1.51;100.00;103801.63;4993392;28;20462;-47
2023/01/23 03:49:48;;;;;;;26.40;24.97;;;;;;;1.46;100.00;103806.25;4993092;28;20464;-45
2023/01/23 03:52:16;;;;;;;27.63;26.03;;;;;;;1.47;100.00;103807.06;4992535;28;20512;-43
2023/01/23 03:54:43;;;;;;;27.70;26.00;;;;;;;1.45;100.00;103804.53;4992886;28;20430;-44
2023/01/23 03:57:11;;;;;;;27.70;26.00;;;;;;;1.46;100.00;103800.97;4992937;28;20454;-45
2023/01/23 03:59:39;;;;;;;26.90;25.50;;;;;;;1.45;100.00;103812.41;4992976;28;20803;-44
2023/01/23 04:02:06;;;;;;;26.83;25.53;;;;;;;1.45;100.00;103799.25;4992526;28;20458;-44
2023/01/23 04:04:36;;;;;;;27.57;26.27;;;;;;;1.42;100.00;103802.00;4992538;28;20920;-43
2023/01/23 04:07:04;;;;;;;28.50;27.10;;;;;;;1.44;100.00;103810.69;4991815;28;20457;-47
2023/01/23 04:09:32;;;;;;;28.60;26.97;;;;;;;1.42;100.00;103799.38;4992660;28;20448;-45
2023/01/23 04:12:00;;;;;;;29.97;28.17;;;;;;;1.44;100.00;103800.16;4992365;28;20477;-43
2023/01/23 04:14:34;;;;;;;29.13;27.33;;;;;;;1.40;100.00;103803.88;4992500;28;20437;-47
2023/01/23 04:17:01;;;;;;;29.90;28.20;;;;;;;1.42;100.00;103806.41;4992528;28;20454;-44
2023/01/23 04:19:29;;;;;;;29.70;28.00;;;;;;;1.44;100.00;103808.06;4992432;28;20872;-44
2023/01/23 04:21:58;;;;;;;28.87;26.97;;;;;;;1.44;100.00;103802.78;4992235;28;20457;-44
2023/01/23 04:24:26;;;;;;;28.20;26.70;;;;;;;1.44;100.00;103808.06;4992350;28;20433;-46
2023/01/23 04:26:54;;;;;;;28.70;26.90;;;;;;;1.45;100.00;103804.53;4992520;28;20446;-47
2023/01/23 04:29:22;;;;;;;28.37;26.57;;;;;;;1.47;100.00;103807.94;4992470;28;20438;-45
2023/01/23 04:31:50;;;;;;;28.03;26.63;;;;;;;1.42;100.00;103801.16;4991735;28;20474;-48
2023/01/23 04:34:17;;;;;;;28.70;27.13;;;;;;;1.47;100.00;103810.56;4992228;28;20804;-44
2023/01/23 04:36:45;;;;;;;28.10;26.60;;;;;;;1.45;100.00;103808.91;4992349;28;20469;-47
2023/01/23 04:39:14;;;;;;;28.50;26.90;;;;;;;1.44;100.00;103802.78;4992041;28;20920;-44
2023/01/23 04:41:42;;;;;;;28.27;26.70;;;;;;;1.54;100.00;103808.53;4991677;28;20466;-43
2023/01/23 04:46:52;;;;;;;30.73;28.93;;;;;;;1.59;100.00;103815.31;4989682;28;20478;-44
2023/01/23 04:49:21;;;;;;;29.30;27.80;;;;;;;1.60;100.00;103819.66;4992440;28;20484;-43
2023/01/23 04:51:49;;;;;;;31.67;29.83;;;;;;;1.66;100.00;103819.41;4991369;28;20497;-46
2023/01/23 04:54:20;;;;;;;30.70;28.90;;;;;;;1.72;100.00;103822.69;4991953;28;20457;-45
2023/01/23 04:56:48;;;;;;;32.13;29.57;;;;;;;1.74;100.00;103819.06;4991277;28;20458;-45
2023/01/23 04:59:16;;;;;;;30.87;29.17;;;;;;;1.78;100.00;103825.94;4991628;28;20442;-45
2023/01/23 05:01:45;;;;;;;31.87;30.17;;;;;;;1.78;100.00;103819.81;4991621;28;21093;-43
2023/01/23 05:04:12;;;;;;;30.23;28.70;;;;;;;1.72;100.00;103825.31;4992075;28;20462;-44
2023/01/23 05:06:40;;;;;;;31.10;29.40;;;;;;;1.72;100.00;103833.22;4991905;28;20457;-49
2023/01/23 05:09:08;;;;;;;32.07;29.93;;;;;;;1.67;100.00;103828.16;4991972;28;20568;-47
2023/01/23 05:11:37;;;;;;;31.00;29.40;;;;;;;1.71;100.00;103827.09;4991543;28;20484;-44
2023/01/23 05:14:04;;;;;;;30.43;28.93;;;;;;;1.72;100.00;103817.44;4991929;28;20509;-43
2023/01/23 05:16:32;;;;;;;31.23;29.43;;;;;;;1.78;100.00;103818.03;4992090;28;20485;-45
2023/01/23 05:19:00;;;;;;;31.03;29.00;;;;;;;1.76;100.00;103816.41;4995697;28;20913;-44
2023/01/23 05:21:27;;;;;;;31.03;29.33;;;;;;;1.76;100.00;103822.53;4995355;28;20876;-44
2023/01/23 05:23:55;;;;;;;31.30;29.40;;;;;;;1.77;100.00;103823.34;4995577;28;20430;-44
2023/01/23 05:26:23;;;;;;;31.63;29.63;;;;;;;1.74;100.00;103821.72;4995598;28;20434;-43
2023/01/23 05:28:52;;;;;;;30.60;28.90;;;;;;;1.77;100.00;103818.94;4995787;28;20430;-44
2023/01/23 05:31:19;;;;;;;30.90;29.30;;;;;;;1.76;100.00;103817.25;4994815;28;20503;-43
2023/01/23 05:33:47;;;;;;;31.97;29.97;;;;;;;1.77;100.00;103811.06;4995523;28;20477;-44
2023/01/23 05:36:15;;;;;;;30.90;29.00;;;;;;;1.79;100.00;103818.91;4995180;28;20437;-43
2023/01/23 05:38:45;;;;;;;32.33;30.33;;;;;;;1.77;100.00;103816.31;4995232;28;20461;-44
2023/01/23 05:41:12;;;;;;;31.83;30.10;;;;;;;1.76;100.00;103813.75;4995168;28;20425;-46
2023/01/23 05:43:40;;;;;;;30.63;28.93;;;;;;;1.77;100.00;103820.72;4995461;28;20432;-47
2023/01/23 05:46:09;;;;;;;31.60;29.17;;;;;;;1.78;100.00;103819.81;4995349;28;20626;-43
2023/01/23 05:48:37;;;;;;;30.97;28.87;;;;;;;1.78;100.00;103819.81;4995337;28;20964;-45
2023/01/23 05:51:05;;;;;;;30.53;28.70;;;;;;;1.77;100.00;103821.56;4994686;28;20426;-47
2023/01/23 05:53:33;;;;;;;31.00;29.00;;;;;;;1.81;100.00;103819.69;4995325;28;20480;-45
2023/01/23 05:56:05;;;;;;;32.30;29.83;;;;;;;1.77;100.00;103820.72;4994960;28;20438;-47
2023/01/23 05:58:33;;;;;;;30.37;28.83;;;;;;;1.80;100.00;103816.19;4995413;28;20501;-46
2023/01/23 06:01:02;;;;;;;30.37;28.50;;;;;;;1.82;100.00;103814.38;4994808;28;20440;-45
2023/01/23 06:03:31;;;;;;;32.10;30.27;;;;;;;1.88;100.00;103823.78;4995146;28;20457;-47
2023/01/23 06:06:00;;;;;;;32.30;30.33;;;;;;;1.92;100.00;103817.44;4994975;28;20528;-46
2023/01/23 06:08:28;;;;;;;31.60;29.90;;;;;;;1.95;100.00;103822.56;4994957;28;20456;-45
2023/01/23 06:10:58;;;;;;;32.10;30.33;;;;;;;1.97;100.00;103826.84;4994462;28;20444;-43
2023/01/23 06:13:26;;;;;;;33.47;31.07;;;;;;;2.00;100.00;103831.13;4995005;28;20887;-48
2023/01/23 06:15:54;;;;;;;33.03;31.03;;;;;;;2.01;100.00;103830.19;4994670;28;20438;-43
2023/01/23 06:18:22;;;;;;;32.50;30.60;;;;;;;2.02;100.00;103824.03;4994669;28;20465;-47
2023/01/23 06:20:57;;;;;;;32.60;30.77;;;;;;;2.01;100.00;103825.78;4994930;28;20434;-43
2023/01/23 06:23:25;;;;;;;33.00;31.00;;;;;;;2.05;100.00;103823.91;4994642;28;20445;-43
2023/01/23 06:25:53;;;;;;;32.37;30.17;;;;;;;2.04;100.00;103832.69;4994597;28;20457;-44
2023/01/23 06:28:20;;;;;;;32.07;29.77;;;;;;;2.08;100.00;103829.88;4994194;28;20457;-43
2023/01/23 06:30:48;;;;;;;31.50;29.70;;;;;;;2.08;100.00;103837.78;4993986;28;20781;-43
2023/01/23 06:33:16;;;;;;;32.27;30.03;;;;;;;2.09;100.00;103833.38;4994062;28;20572;-44
2023/01/23 06:35:43;;;;;;;31.50;29.70;;;;;;;2.12;100.00;103838.50;4994317;28;20782;-46
2023/01/23 06:38:12;;;;;;;32.23;30.10;;;;;;;2.08;100.00;103839.56;4994428;28;20457;-43
2023/01/23 06:40:40;;;;;;;32.10;30.20;;;;;;;2.11;100.00;103845.56;4994380;28;20434;-45
2023/01/23 06:43:07;;;;;;;33.03;30.73;;;;;;;2.11;100.00;103849.94;4993817;28;21032;-46
2023/01/23 06:45:35;;;;;;;32.20;29.90;;;;;;;2.06;100.00;103851.94;4994081;28;20803;-43
2023/01/23 06:48:03;;;;;;;32.20;30.10;;;;;;;2.07;100.00;103858.88;4994376;28;20454;-43
2023/01/23 06:50:31;;;;;;;32.37;30.57;;;;;;;2.08;100.00;103868.50;4994289;28;20437;-43
2023/01/23 06:52:59;;;;;;;31.80;30.07;;;;;;;2.03;100.00;103866.06;4993622;28;20481;-44
2023/01/23 06:55:28;;;;;;;33.80;31.80;;;;;;;2.02;100.00;103874.91;4994019;28;20430;-43
2023/01/23 06:57:55;;;;;;;33.73;31.97;;;;;;;2.00;100.00;103870.63;4993961;28;20497;-43
2023/01/23 07:00:23;;;;;;;32.00;30.27;;;;;;;2.01;100.00;103872.31;4994069;28;20430;-43
2023/01/23 07:02:53;;;;;;;33.00;30.90;;;;;;;1.96;100.00;103869.03;4993224;28;20995;-43
2023/01/23 07:05:21;;;;;;;32.60;30.33;;;;;;;1.96;100.00;103874.28;4993828;28;20534;-45
2023/01/23 07:07:50;;;;;;;32.37;30.20;;;;;;;1.92;100.00;103880.59;4993796;28;20457;-44
2023/01/23 07:10:18;;;;;;;32.30;29.93;;;;;;;1.86;100.00;103875.59;4994085;28;20430;-46
2023/01/23 07:12:48;;;;;;;31.47;29.60;;;;;;;1.88;100.00;103881.66;4993330;28;20573;-47
2023/01/23 07:15:15;;;;;;;35.20;32.70;;;;;;;1.93;100.00;103885.81;4993761;28;20445;-43
2023/01/23 07:17:43;;;;;;;31.70;29.90;;;;;;;1.91;100.00;103889.44;4993771;28;20454;-43
2023/01/23 07:20:13;;;;;;;31.93;30.10;;;;;;;1.92;100.00;103885.84;4993755;28;20433;-44
2023/01/23 07:22:41;;;;;;;32.27;30.43;;;;;;;1.94;100.00;103894.56;4992291;28;20462;-43
2023/01/23 07:25:08;;;;;;;30.57;28.77;;;;;;;1.96;100.00;103903.25;4993217;28;21010;-44
2023/01/23 07:27:36;;;;;;;31.93;29.90;;;;;;;1.92;100.00;103904.28;4993657;28;20465;-43
2023/01/23 07:30:06;;;;;;;33.67;31.23;;;;;;;1.95;100.00;103909.41;4993653;28;20850;-43
2023/01/23 07:32:34;;;;;;;31.80;29.67;;;;;;;1.92;100.00;103907.78;4993141;28;20497;-43
2023/01/23 07:35:02;;;;;;;32.27;30.27;;;;;;;1.90;100.00;103914.88;4993002;28;20473;-45
2023/01/23 07:37:29;;;;;;;31.23;29.30;;;;;;;1.88;100.00;103916.72;4993195;28;20464;-43
2023/01/23 07:39:57;;;;;;;32.27;30.20;;;;;;;1.88;100.00;103921.97;4993067;28;20461;-47
2023/01/23 07:42:25;;;;;;;32.73;30.43;;;;;;;1.90;100.00;103921.91;4992423;28;20479;-43
2023/01/23 07:44:52;;;;;;;32.23;30.33;;;;;;;1.96;100.00;103925.16;4993114;28;20529;-44
2023/01/23 07:47:21;;;;;;;32.83;30.53;;;;;;;2.04;100.00;103920.44;4993159;28;20466;-47
2023/01/23 07:49:49;;;;;;;31.83;29.83;;;;;;;2.09;100.00;103925.50;4992997;28;20528;-44
2023/01/23 07:52:17;;;;;;;33.23;31.17;;;;;;;2.16;100.00;103919.06;4992593;28;20991;-46
2023/01/23 07:54:45;;;;;;;31.17;29.10;;;;;;;2.21;100.00;103917.09;4992972;28;20473;-47
2023/01/23 07:57:13;;;;;;;33.83;31.40;;;;;;;2.26;100.00;103928.28;4992826;28;20984;-43
2023/01/23 07:59:40;;;;;;;32.90;30.67;;;;;;;2.29;100.00;103924.66;4992988;28;20429;-45
2023/01/23 08:02:09;;;;;;;33.33;31.43;;;;;;;2.32;100.00;103922.75;4992353;28;20971;-46
2023/01/23 08:04:38;;;;;;;33.00;31.07;;;;;;;2.31;100.00;103926.31;4992543;28;20434;-44
2023/01/23 08:07:06;;;;;;;32.83;30.90;;;;;;;2.36;100.00;103929.59;4992758;28;20464;-44
2023/01/23 08:09:34;;;;;;;31.80;30.00;;;;;;;2.38;100.00;103926.91;4992851;28;20441;-44
2023/01/23 08:12:01;;;;;;;32.67;30.67;;;;;;;2.40;100.00;103933.81;4992530;28;20886;-45
2023/01/23 08:14:29;;;;;;;32.27;30.23;;;;;;;2.43;100.00;103931.03;4992557;28;20479;-44
2023/01/23 08:16:57;;;;;;;31.20;29.23;;;;;;;2.32;100.00;103925.38;4992493;28;20462;-43
2023/01/23 08:19:26;;;;;;;29.80;28.27;;;;;;;2.32;100.00;103924.53;4992951;28;20442;-47
2023/01/23 08:21:55;;;;;;;31.60;29.60;;;;;;;2.38;100.00;103934.78;4992357;28;20541;-45
2023/01/23 08:24:22;;;;;;;30.00;28.30;;;;;;;2.42;100.00;103925.84;4992587;28;20453;-47
2023/01/23 08:26:50;;;;;;;33.37;30.87;;;;;;;2.46;100.00;103930.91;4992540;28;20816;-44
2023/01/23 08:29:18;;;;;;;31.37;29.60;;;;;;;2.48;100.00;103934.31;4992611;28;20437;-47
2023/01/23 08:31:45;;;;;;;30.37;28.97;;;;;;;2.47;100.00;103934.41;4992081;28;20465;-46
2023/01/23 08:34:14;;;;;;;31.53;29.73;;;;;;;2.51;100.00;103930.72;4992145;28;21038;-44
2023/01/23 08:36:42;;;;;;;30.67;29.07;;;;;;;2.48;100.00;103933.50;4992383;28;20457;-45
2023/01/23 08:39:11;;;;;;;31.47;29.83;;;;;;;2.48;100.00;103926.41;4992275;28;20442;-44
2023/01/23 08:41:38;;;;;;;31.67;29.97;;;;;;;2.48;100.00;103934.31;4991752;28;20549;-43
2023/01/23 08:44:06;;;;;;;31.73;29.93;;;;;;;2.43;100.00;103932.81;4991922;28;20769;-44
2023/01/23 08:46:34;;;;;;;31.00;29.40;;;;;;;2.39;100.00;103934.72;4992160;28;20465;-46
2023/01/23 08:49:02;;;;;;;30.63;28.93;;;;;;;2.37;100.00;103936.56;4992269;28;20434;-44
2023/01/23 08:51:29;;;;;;;29.87;28.37;;;;;;;2.34;100.00;103933.22;4991830;28;20458;-45
2023/01/23 08:53:58;;;;;;;29.47;28.07;;;;;;;2.29;100.00;103941.31;4995687;28;20433;-44
2023/01/23 08:56:27;;;;;;;29.60;28.00;;;;;;;2.22;100.00;103937.22;4996333;28;20434;-44
2023/01/23 08:58:54;;;;;;;29.77;28.30;;;;;;;2.29;100.00;103941.31;4996601;28;20433;-44
2023/01/23 09:01:24;;;;;;;30.03;28.63;;;;;;;2.31;100.00;103936.84;4996113;28;20484;-45
2023/01/23 09:03:52;;;;;;;30.10;28.50;;;;;;;2.36;100.00;103942.75;4996391;28;20871;-46
2023/01/23 09:06:22;;;;;;;30.70;28.93;;;;;;;2.38;100.00;103934.78;4996046;28;20556;-47
2023/01/23 09:08:50;;;;;;;32.00;30.20;;;;;;;2.43;100.00;103938.94;4996186;28;20424;-47
2023/01/23 09:11:18;;;;;;;31.47;29.97;;;;;;;2.48;100.00;103936.97;4995658;28;20457;-48
2023/01/23 09:13:47;;;;;;;30.53;29.00;;;;;;;2.54;100.00;103934.06;4996201;28;20839;-46
2023/01/23 09:16:16;;;;;;;31.20;29.60;;;;;;;2.55;100.00;103932.28;4995751;28;20567;-47
2023/01/23 09:18:44;;;;;;;31.83;30.13;;;;;;;2.58;100.00;103932.16;4995999;28;20500;-45
2023/01/23 09:21:15;;;;;;;31.30;29.80;;;;;;;2.60;100.00;103933.78;4995603;28;20871;-49
2023/01/23 09:23:44;;;;;;;30.27;28.97;;;;;;;2.58;100.00;103940.91;4995777;28;20526;-48
2023/01/23 09:26:14;;;;;;;31.97;30.33;;;;;;;2.60;100.00;103940.81;4995599;28;20954;-45
2023/01/23 09:28:42;;;;;;;31.73;30.03;;;;;;;2.61;100.00;103943.41;4995883;28;20445;-46
2023/01/23 09:31:13;;;;;;;31.17;29.77;;;;;;;2.59;100.00;103953.16;4995301;28;20540;-44
2023/01/23 09:33:42;;;;;;;32.20;30.50;;;;;;;2.54;100.00;103949.84;4995672;28;20484;-44
2023/01/23 09:36:10;;;;;;;32.57;30.87;;;;;;;2.50;100.00;103947.44;4995243;28;20481;-44
2023/01/23 09:38:38;;;;;;;31.70;30.20;;;;;;;2.56;100.00;103950.69;4995205;28;20458;-45
2023/01/23 09:41:14;;;;;;;32.13;30.53;;;;;;;2.62;100.00;103950.41;4994959;28;20484;-42
2023/01/23 09:43:47;;;;;;;32.00;30.50;;;;;;;2.55;100.00;103948.94;4995513;28;20440;-44
2023/01/23 09:46:21;;;;;;;30.60;29.10;;;;;;;2.59;100.00;103947.03;4995134;28;20785;-47
2023/01/23 09:48:54;;;;;;;31.83;30.13;;;;;;;2.57;100.00;103947.09;4995146;28;21271;-46
2023/01/23 09:51:27;;;;;;;31.10;29.40;;;;;;;2.64;100.00;103950.31;4995121;28;20462;-43
2023/01/23 09:54:00;;;;;;;31.90;30.10;;;;;;;2.75;100.00;103945.44;4995099;28;20426;-48
2023/01/23 09:56:31;;;;;;;33.17;31.37;;;;;;;2.92;100.00;103958.72;4995197;28;20488;-46
2023/01/23 09:59:06;;;;;;;35.33;33.47;;;;;;;3.03;100.00;103951.19;4994965;28;20448;-46
2023/01/23 10:01:36;;;;;;;32.83;31.07;;;;;;;3.14;100.00;103955.97;4994869;28;20456;-44
2023/01/23 10:04:05;;;;;;;31.90;30.20;;;;;;;3.23;100.00;103952.91;4994920;28;20430;-43
2023/01/23 10:06:49;;;;;;;31.00;29.50;;;;;;;3.36;100.00;103961.97;4995113;28;20437;-44
2023/01/23 10:09:35;;;;;;;31.40;29.73;;;;;;;3.39;100.00;103959.19;4994809;28;20817;-47
2023/01/23 10:12:11;;;;;;;29.87;28.27;;;;;;;3.46;100.00;103954.47;4994793;28;20488;-44
2023/01/23 10:14:51;;;;;;;31.50;29.70;;;;;;;3.46;100.00;103957.97;4994598;28;20425;-46
2023/01/23 10:17:29;;;;;;;30.17;28.67;;;;;;;3.46;100.00;103962.41;4994895;28;20454;-49
2023/01/23 10:20:17;;;;;;;28.90;27.50;;;;;;;3.55;100.00;103959.31;4994842;28;20429;-44
2023/01/23 10:22:55;;;;;;;29.87;28.37;;;;;;;3.62;100.00;103960.72;4994527;28;20477;-46
2023/01/23 10:25:26;;;;;;;29.40;27.90;;;;;;;3.71;100.00;103962.91;4994678;28;20802;-47
2023/01/23 10:28:00;;;;;;;30.73;29.13;;;;;;;3.80;100.00;103960.69;4994765;28;20872;-45
2023/01/23 10:30:32;;;;;;;29.87;28.37;;;;;;;3.83;100.00;103963.19;4994428;28;20452;-48
2023/01/23 10:33:09;;;;;;;31.53;29.73;;;;;;;3.87;100.00;103959.47;4994259;28;20520;-45
2023/01/23 10:35:49;;;;;;;29.00;27.60;;;;;;;3.99;100.00;103959.78;4994516;28;20520;-46
2023/01/23 10:38:37;;;;;;;28.60;27.13;;;;;;;4.11;100.00;103953.91;4994476;28;20824;-48
2023/01/23 10:41:18;;;;;;;29.97;28.50;;;;;;;4.18;100.00;103950.03;4987939;28;20422;-45
2023/01/23 10:43:51;;;;;;;31.70;30.00;;;;;;;4.28;100.00;103952.13;4994627;28;20812;-45
2023/01/23 10:46:21;;;;;;;31.60;29.87;;;;;;;4.41;100.00;103952.38;4994307;28;20804;-44
2023/01/23 10:48:52;;;;;;;30.77;29.27;;;;;;;4.42;100.00;103959.38;4994381;28;20545;-44
2023/01/23 10:51:35;;;;;;;31.17;29.47;;;;;;;4.47;100.00;103952.06;4994038;28;20457;-45
2023/01/23 10:54:05;;;;;;;29.63;28.10;;;;;;;4.44;100.00;103950.44;4994360;28;20437;-44
2023/01/23 10:56:39;;;;;;;30.17;28.50;;;;;;;4.35;100.00;103955.31;4994272;28;20473;-45
2023/01/23 10:59:18;;;;;;;28.63;27.20;;;;;;;4.34;100.00;103962.38;4994154;28;20496;-45
2023/01/23 11:01:55;;;;;;;30.07;28.37;;;;;;;4.32;100.00;103966.03;4993654;28;20473;-43
2023/01/23 11:04:28;;;;;;;27.20;25.80;;;;;;;4.25;100.00;103965.50;4994007;28;20433;-44
2023/01/23 11:07:09;;;;;;;27.77;26.47;;;;;;;4.18;100.00;103971.19;4994045;28;20449;-45
2023/01/23 11:09:49;;;;;;;28.47;26.70;;;;;;;4.17;100.00;103961.53;4993841;28;20541;-49
2023/01/23 11:12:20;;;;;;;28.87;27.37;;;;;;;4.14;100.00;103966.97;4993340;28;20473;-46
2023/01/23 11:14:48;;;;;;;26.90;25.70;;;;;;;4.15;100.00;103958.94;4993322;28;20429;-44
2023/01/23 11:17:20;;;;;;;26.90;25.70;;;;;;;4.16;100.00;103962.44;4993643;28;20983;-44
2023/01/23 11:19:52;;;;;;;27.30;26.00;;;;;;;4.21;100.00;103963.91;4993838;28;20430;-46
2023/01/23 11:22:32;;;;;;;28.10;26.60;;;;;;;4.23;100.00;103962.09;4993223;28;20462;-44
2023/01/23 11:25:00;;;;;;;27.23;25.80;;;;;;;4.30;100.00;103960.81;4993621;28;20437;-43
2023/01/23 11:27:30;;;;;;;26.10;24.80;;;;;;;4.39;100.00;103956.88;4993642;28;20453;-44
2023/01/23 11:30:31;;;;;;;25.90;24.80;;;;;;;4.43;100.00;103955.78;4993619;28;20492;-46